createdAt,value
2018-04-23T07:13:31.228Z,20.1
2018-04-23T07:14:21.255Z,19.6
2018-04-23T07:15:11.364Z,19.8
2018-04-23T07:16:01.405Z,19.8
2018-04-23T07:16:51.464Z,19.8
2018-04-23T07:17:41.504Z,20.1
2018-04-23T07:18:31.633Z,20.4
2018-04-23T07:19:21.648Z,20.6
2018-04-23T07:20:11.720Z,20.8
2018-04-23T07:21:01.486Z,20.6
2018-04-23T07:21:51.562Z,20.6
2018-04-23T07:22:41.904Z,20.6
2018-04-23T07:23:31.999Z,20.9
2018-04-23T07:24:22.035Z,20.8
2018-04-23T07:25:12.102Z,20.7
2018-04-23T07:26:02.178Z,20.9
2018-04-23T07:26:51.945Z,20.8
2018-04-23T07:27:42.018Z,20.9
2018-04-23T07:28:32.403Z,21
2018-04-23T07:29:22.731Z,21
2018-04-23T07:31:02.571Z,21.1
2018-04-23T07:31:51.845Z,21
2018-04-23T07:32:42.676Z,21.3
2018-04-23T07:33:32.178Z,20.9
2018-04-23T07:34:22.810Z,20.9
2018-04-23T07:35:12.590Z,21
2018-04-23T07:36:52.468Z,21.3
2018-04-23T07:37:42.309Z,21.4
2018-04-23T07:38:33.132Z,21.6
2018-04-23T07:39:23.220Z,21.9
2018-04-23T07:40:13.255Z,22
2018-04-23T07:41:03.315Z,22.1
2018-04-23T07:41:53.126Z,22.1
2018-04-23T07:42:42.886Z,22.4
2018-04-23T07:43:33.526Z,22.3
2018-04-23T07:44:23.293Z,22.3
2018-04-23T07:45:13.371Z,22.1
2018-04-23T07:46:03.436Z,22
2018-04-23T07:46:53.768Z,21.8
2018-04-23T07:47:43.860Z,22.1
2018-04-23T07:48:33.332Z,22.3
2018-04-23T07:49:23.977Z,22.4
2018-04-23T07:50:13.768Z,22.3
2018-04-23T07:51:04.136Z,22.4
2018-04-23T07:51:53.888Z,22.9
2018-04-23T07:52:44.233Z,22.8
2018-04-23T07:53:34.020Z,23.3
2018-04-23T07:54:24.102Z,23.2
2018-04-23T07:55:14.427Z,23.3
2018-04-23T07:56:04.216Z,23.4
2018-04-23T07:56:54.585Z,23.3
2018-04-23T07:57:44.337Z,23.4
2018-04-23T07:58:34.681Z,23.4
2018-04-23T07:59:24.760Z,23.4
2018-04-23T08:00:14.273Z,23.5
2018-04-23T08:01:04.620Z,23.6
2018-04-23T08:01:54.961Z,23.8
2018-04-23T08:02:44.754Z,23.9
2018-04-23T08:03:34.800Z,24.4
2018-04-23T08:04:24.873Z,24.6
2018-04-23T08:05:15.223Z,24.6
2018-04-23T08:06:05.021Z,24.4
2018-04-23T08:06:55.609Z,24.5
2018-04-23T08:07:45.397Z,24.6
2018-04-23T08:08:35.492Z,24.6
2018-04-23T08:09:25.532Z,24.7
2018-04-23T08:10:15.588Z,24.9
2018-04-23T08:11:05.368Z,24.8
2018-04-23T08:11:55.754Z,24.9
2018-04-23T08:12:45.792Z,24.8
2018-04-23T08:13:35.290Z,24.9
2018-04-23T08:14:25.359Z,24.7
2018-04-23T08:15:15.719Z,24.1
2018-04-23T08:16:05.817Z,24.1
2018-04-23T08:16:55.839Z,23.9
2018-04-23T08:17:45.606Z,23.6
2018-04-23T08:18:35.490Z,24.1
2018-04-23T08:19:25.837Z,24
2018-04-23T08:20:15.632Z,24.3
2018-04-23T08:21:06.163Z,24.6
2018-04-23T08:21:56.236Z,25
2018-04-23T08:22:46.607Z,25.3
2018-04-23T08:23:36.701Z,25.4
2018-04-23T08:24:26.748Z,25.6
2018-04-23T08:25:16.215Z,25.6
2018-04-23T08:26:06.845Z,25.9
2018-04-23T08:26:56.611Z,25.9
2018-04-23T08:27:46.714Z,25.9
2018-04-23T08:28:37.033Z,25.7
2018-04-23T08:29:26.881Z,25.6
2018-04-23T08:30:17.172Z,25.7
2018-04-23T08:31:07.281Z,25.4
2018-04-23T08:31:57.530Z,25.4
2018-04-23T08:32:47.348Z,25.3
2018-04-23T08:33:36.563Z,25.1
2018-04-23T08:34:27.208Z,24.8
2018-04-23T08:35:17.546Z,24.9
2018-04-23T08:36:07.074Z,24.8
2018-04-23T08:36:57.698Z,24.9
2018-04-23T08:37:47.177Z,24.8
2018-04-23T08:38:37.541Z,25.4
2018-04-23T08:39:27.318Z,25.6
2018-04-23T08:40:17.119Z,25.5
2018-04-23T08:41:08.013Z,26.1
2018-04-23T08:41:58.086Z,25.6
2018-04-23T08:42:48.155Z,25.4
2018-04-23T08:43:38.208Z,25.8
2018-04-23T08:44:28.268Z,25.9
2018-04-23T08:45:18.313Z,26.3
2018-04-23T08:46:08.118Z,26.3
2018-04-23T08:46:58.459Z,25.9
2018-04-23T08:47:48.538Z,26.3
2018-04-23T08:48:38.599Z,26.4
2018-04-23T08:49:28.648Z,26.4
2018-04-23T08:50:18.718Z,26.6
2018-04-23T08:51:08.498Z,26.9
2018-04-23T08:51:58.859Z,26.9
2018-04-23T08:52:48.921Z,26.8
2018-04-23T08:53:39.012Z,26.2
2018-04-23T08:54:29.041Z,25.8
2018-04-23T08:55:18.862Z,25.6
2018-04-23T08:56:08.912Z,25.6
2018-04-23T08:56:59.266Z,26.6
2018-04-23T08:57:49.304Z,26.9
2018-04-23T08:58:39.383Z,27.2
2018-04-23T08:59:28.917Z,26.9
2018-04-23T09:00:19.495Z,26.8
2018-04-23T09:01:09.594Z,26.8
2018-04-23T09:01:59.379Z,26.8
2018-04-23T09:02:49.706Z,26.5
2018-04-23T09:03:39.779Z,26.9
2018-04-23T09:04:29.854Z,27.2
2018-04-23T09:05:19.648Z,26.9
2018-04-23T09:06:09.433Z,27.1
2018-04-23T09:07:00.024Z,26.8
2018-04-23T09:07:49.849Z,26.8
2018-04-23T09:08:40.196Z,26.6
2018-04-23T09:09:29.979Z,25.8
2018-04-23T09:10:20.036Z,25.6
2018-04-23T09:11:10.368Z,25.9
2018-04-23T09:12:00.453Z,26.3
2018-04-23T09:12:50.216Z,26.8
2018-04-23T09:13:40.019Z,26.8
2018-04-23T09:14:30.678Z,27
2018-04-23T09:15:20.708Z,26.7
2018-04-23T09:16:10.784Z,25.6
2018-04-23T09:17:00.823Z,25.4
2018-04-23T09:17:51.184Z,25.1
2018-04-23T09:18:40.948Z,25.3
2018-04-23T09:19:31.029Z,25.7
2018-04-23T09:20:20.518Z,26.2
2018-04-23T09:21:10.876Z,26.8
2018-04-23T09:22:00.662Z,27.3
2018-04-23T09:22:51.299Z,27.4
2018-04-23T09:23:41.084Z,27.3
2018-04-23T09:24:31.441Z,27.3
2018-04-23T09:25:21.222Z,27.3
2018-04-23T09:26:11.575Z,26.9
2018-04-23T09:27:01.355Z,26.4
2018-04-23T09:27:51.115Z,26.2
2018-04-23T09:28:41.777Z,26.4
2018-04-23T09:29:31.552Z,26.1
2018-04-23T09:30:21.904Z,26.7
2018-04-23T09:31:11.939Z,27.3
2018-04-23T09:32:01.747Z,27
2018-04-23T09:32:51.797Z,26.9
2018-04-23T09:33:41.572Z,27.1
2018-04-23T09:34:32.196Z,26.9
2018-04-23T09:35:22.269Z,26.9
2018-04-23T09:36:12.342Z,26.2
2018-04-23T09:37:01.842Z,26.9
2018-04-23T09:37:52.455Z,26.9
2018-04-23T09:38:42.240Z,26.3
2018-04-23T09:39:32.033Z,26.5
2018-04-23T09:40:22.281Z,26.3
2018-04-23T09:41:12.440Z,26.7
2018-04-23T09:42:02.500Z,26.3
2018-04-23T09:42:52.842Z,25.9
2018-04-23T09:43:42.634Z,26.8
2018-04-23T09:44:32.693Z,27.3
2018-04-23T09:45:23.075Z,27.6
2018-04-23T09:46:12.602Z,27.5
2018-04-23T09:47:02.926Z,27.5
2018-04-23T09:47:53.243Z,27
2018-04-23T09:48:42.751Z,26.9
2018-04-23T09:49:33.378Z,27.3
2018-04-23T09:50:23.437Z,27.1
2018-04-23T09:51:13.530Z,27.9
2018-04-23T09:52:03.624Z,28.4
2018-04-23T09:52:53.359Z,28.9
2018-04-23T09:53:43.431Z,29.2
2018-04-23T09:54:33.781Z,29.3
2018-04-23T09:55:23.827Z,29.4
2018-04-23T09:56:13.903Z,29.6
2018-04-23T09:57:03.974Z,29.1
2018-04-23T09:57:53.770Z,28.3
2018-04-23T09:58:44.352Z,27.9
2018-04-23T10:00:24.219Z,28.1
2018-04-23T10:01:14.299Z,27.8
2018-04-23T10:02:04.364Z,27.6
2018-04-23T10:02:54.451Z,27.9
2018-04-23T10:03:44.210Z,28.8
2018-04-23T10:04:34.304Z,29.4
2018-04-23T10:05:24.636Z,29.5
2018-04-23T10:06:14.730Z,29.8
2018-04-23T10:07:04.503Z,29.3
2018-04-23T10:07:54.553Z,28.9
2018-04-23T10:08:44.875Z,29.1
2018-04-23T10:09:34.969Z,29.1
2018-04-23T10:10:24.999Z,29.6
2018-04-23T10:11:15.073Z,29.9
2018-04-23T10:12:05.139Z,29.5
2018-04-23T10:12:55.222Z,29.9
2018-04-23T10:13:45.257Z,30.1
2018-04-23T10:14:35.354Z,30.4
2018-04-23T10:15:25.142Z,30.6
2018-04-23T10:16:15.478Z,30.7
2018-04-23T10:17:05.534Z,30.4
2018-04-23T10:17:55.305Z,30.2
2018-04-23T10:18:45.654Z,30.3
2018-04-23T10:19:35.727Z,30.3
2018-04-23T10:20:25.810Z,30.6
2018-04-23T10:21:15.853Z,30.1
2018-04-23T10:22:05.658Z,28.9
2018-04-23T10:22:55.991Z,28.8
2018-04-23T10:23:45.839Z,27.4
2018-04-23T10:24:35.578Z,27.4
2018-04-23T10:26:16.271Z,28.4
2018-04-23T10:27:06.313Z,29.3
2018-04-23T10:27:56.388Z,30.1
2018-04-23T10:28:46.441Z,29.6
2018-04-23T10:29:36.240Z,30.1
2018-04-23T10:30:26.599Z,29.8
2018-04-23T10:31:16.649Z,30.1
2018-04-23T10:32:06.451Z,30.5
2018-04-23T10:32:56.638Z,30.6
2018-04-23T10:33:46.894Z,30.8
2018-04-23T10:34:36.909Z,30.8
2018-04-23T10:35:26.981Z,30.8
2018-04-23T10:36:17.037Z,30.8
2018-04-23T10:37:07.116Z,30.6
2018-04-23T10:37:57.190Z,30.8
2018-04-23T10:38:46.944Z,30.4
2018-04-23T10:39:37.297Z,30.1
2018-04-23T10:40:27.361Z,30.4
2018-04-23T10:41:17.417Z,30.8
2018-04-23T10:42:07.509Z,30.9
2018-04-23T10:42:57.563Z,30.9
2018-04-23T10:43:47.614Z,30.9
2018-04-23T10:44:37.152Z,30.8
2018-04-23T10:45:27.792Z,30.9
2018-04-23T10:46:17.550Z,31.2
2018-04-23T10:47:07.876Z,31.1
2018-04-23T10:47:57.944Z,31.4
2018-04-23T10:48:48.034Z,31.4
2018-04-23T10:49:37.549Z,31.4
2018-04-23T10:50:28.168Z,31.5
2018-04-23T10:51:18.211Z,31
2018-04-23T10:52:07.985Z,30.2
2018-04-23T10:52:58.376Z,29.9
2018-04-23T10:53:48.391Z,30.2
2018-04-23T10:54:38.223Z,30.6
2018-04-23T10:55:28.559Z,30.8
2018-04-23T10:56:18.322Z,31.1
2018-04-23T10:57:08.419Z,31.5
2018-04-23T10:57:58.728Z,31.6
2018-04-23T10:58:48.817Z,31.3
2018-04-23T10:59:38.595Z,30.9
2018-04-23T11:00:28.662Z,30.8
2018-04-23T11:01:18.447Z,30.8
2018-04-23T11:02:09.059Z,30.6
2018-04-23T11:02:58.647Z,31
2018-04-23T11:03:48.721Z,30.4
2018-04-23T11:04:38.709Z,29.4
2018-04-23T11:05:29.329Z,29.3
2018-04-23T11:06:19.371Z,29.6
2018-04-23T11:07:09.464Z,29.7
2018-04-23T11:07:59.509Z,29.9
2018-04-23T11:08:49.599Z,29.7
2018-04-23T11:09:39.634Z,29.7
2018-04-23T11:10:29.703Z,29.3
2018-04-23T11:11:19.798Z,28.9
2018-04-23T11:12:09.844Z,28.4
2018-04-23T11:13:49.700Z,27.9
2018-04-23T11:14:39.787Z,28.4
2018-04-23T11:15:29.839Z,28.9
2018-04-23T11:16:20.183Z,28.6
2018-04-23T11:17:09.694Z,27.9
2018-04-23T11:18:00.301Z,28.9
2018-04-23T11:18:50.109Z,28.7
2018-04-23T11:19:40.465Z,29
2018-04-23T11:20:30.243Z,29.8
2018-04-23T11:21:20.308Z,30.2
2018-04-23T11:22:10.381Z,30.1
2018-04-23T11:23:00.465Z,29.4
2018-04-23T11:23:50.201Z,28.9
2018-04-23T11:24:40.577Z,28.1
2018-04-23T11:26:20.993Z,27.5
2018-04-23T11:27:11.051Z,27.9
2018-04-23T11:28:00.822Z,28.5
2018-04-23T11:28:51.157Z,29.3
2018-04-23T11:29:40.975Z,29.8
2018-04-23T11:30:31.303Z,29.6
2018-04-23T11:31:21.360Z,29.3
2018-04-23T11:32:11.190Z,29.3
2018-04-23T11:33:01.226Z,29.9
2018-04-23T11:33:51.599Z,29.2
2018-04-23T11:34:41.621Z,27.9
2018-04-23T11:35:31.707Z,27.8
2018-04-23T11:36:21.764Z,28.1
2018-04-23T11:37:11.841Z,28.6
2018-04-23T11:38:01.348Z,28.9
2018-04-23T11:38:51.774Z,28.8
2018-04-23T11:39:41.731Z,28.6
2018-04-23T11:40:31.805Z,29.2
2018-04-23T11:41:21.892Z,28.9
2018-04-23T11:42:11.949Z,28.4
2018-04-23T11:43:01.789Z,28.3
2018-04-23T11:43:52.081Z,28.5
2018-04-23T11:44:42.137Z,28.4
2018-04-23T11:45:32.469Z,28.9
2018-04-23T11:46:22.300Z,28.9
2018-04-23T11:47:12.658Z,29.3
2018-04-23T11:48:02.682Z,29.8
2018-04-23T11:48:52.782Z,30.3
2018-04-23T11:49:42.251Z,30.4
2018-04-23T11:50:32.896Z,30.6
2018-04-23T11:51:22.669Z,30.4
2018-04-23T11:52:12.452Z,30.6
2018-04-23T11:53:03.279Z,30.9
2018-04-23T11:53:53.174Z,31.4
2018-04-23T11:54:42.665Z,31.4
2018-04-23T11:55:33.286Z,31.7
2018-04-23T11:56:23.072Z,31.4
2018-04-23T11:57:13.401Z,31.4
2018-04-23T11:58:03.211Z,31.1
2018-04-23T11:58:53.570Z,31.6
2018-04-23T11:59:43.805Z,31.6
2018-04-23T12:00:33.384Z,31.4
2018-04-23T12:01:23.477Z,31.4
2018-04-23T12:02:13.784Z,31.3
2018-04-23T12:03:03.905Z,31.4
2018-04-23T12:03:53.915Z,31.4
2018-04-23T12:04:44.000Z,30.9
2018-04-23T12:05:34.068Z,30.9
2018-04-23T12:06:23.278Z,31.1
2018-04-23T12:07:13.899Z,31.3
2018-04-23T12:08:03.404Z,31.6
2018-04-23T12:08:53.192Z,32
2018-04-23T12:09:43.626Z,30.9
2018-04-23T12:10:33.610Z,30.2
2018-04-23T12:11:24.533Z,29.3
2018-04-23T12:12:14.440Z,29.3
2018-04-23T12:13:04.399Z,29.1
2018-04-23T12:13:53.874Z,29.3
2018-04-23T12:14:44.792Z,29.4
2018-04-23T12:15:34.568Z,29.6
2018-04-23T12:16:24.899Z,30.6
2018-04-23T12:17:14.985Z,30.8
2018-04-23T12:18:04.762Z,31.4
2018-04-23T12:18:54.812Z,31.2
2018-04-23T12:19:45.172Z,31.4
2018-04-23T12:20:34.675Z,31.8
2018-04-23T12:21:25.032Z,31.6
2018-04-23T12:22:14.829Z,31.4
2018-04-23T12:23:04.908Z,30.4
2018-04-23T12:23:55.496Z,30.9
2018-04-23T12:24:44.748Z,31.1
2018-04-23T12:25:35.621Z,31.7
2018-04-23T12:26:25.696Z,31.8
2018-04-23T12:27:15.769Z,31.9
2018-04-23T12:28:05.541Z,32.1
2018-04-23T12:28:55.898Z,31.9
2018-04-23T12:29:45.964Z,32.1
2018-04-23T12:30:36.038Z,32.2
2018-04-23T12:31:26.006Z,32
2018-04-23T12:32:15.911Z,32.2
2018-04-23T12:33:06.241Z,32.3
2018-04-23T12:33:56.335Z,32.3
2018-04-23T12:34:46.111Z,31.6
2018-04-23T12:35:36.182Z,31.1
2018-04-23T12:36:26.226Z,30.7
2018-04-23T12:37:16.590Z,30.1
2018-04-23T12:38:06.695Z,30.1
2018-04-23T12:38:56.412Z,30.1
2018-04-23T12:39:46.670Z,30.5
2018-04-23T12:40:36.829Z,30.7
2018-04-23T12:41:26.899Z,30.8
2018-04-23T12:42:16.674Z,30.6
2018-04-23T12:43:06.748Z,30
2018-04-23T12:43:57.093Z,29.9
2018-04-23T12:45:01.544Z,30
2018-04-23T12:45:37.229Z,29.6
2018-04-23T12:46:26.444Z,29.6
2018-04-23T12:47:17.331Z,29.5
2018-04-23T12:48:07.407Z,29.5
2018-04-23T12:48:57.486Z,29.3
2018-04-23T12:49:47.004Z,29
2018-04-23T12:50:37.620Z,29.8
2018-04-23T12:51:27.678Z,30.4
2018-04-23T12:52:17.756Z,30.9
2018-04-23T12:53:07.804Z,31.3
2018-04-23T12:53:57.586Z,31.5
2018-04-23T12:54:47.946Z,31.1
2018-04-23T12:55:37.990Z,30.8
2018-04-23T12:56:28.096Z,30.4
2018-04-23T12:57:18.132Z,29.4
2018-04-23T12:58:08.196Z,29.8
2018-04-23T12:58:58.265Z,30.1
2018-04-23T12:59:48.042Z,30.1
2018-04-23T13:00:38.399Z,30.6
2018-04-23T13:01:28.457Z,30.9
2018-04-23T13:02:17.958Z,31.3
2018-04-23T13:03:08.605Z,31.2
2018-04-23T13:03:58.660Z,30.6
2018-04-23T13:04:48.731Z,30.8
2018-04-23T13:05:38.520Z,31.1
2018-04-23T13:06:28.838Z,31
2018-04-23T13:07:18.905Z,30.7
2018-04-23T13:08:08.727Z,31
2018-04-23T13:08:58.499Z,30.9
2018-04-23T13:09:48.852Z,30.4
2018-04-23T13:10:39.187Z,30.6
2018-04-23T13:11:28.983Z,30.3
2018-04-23T13:12:19.539Z,29.8
2018-04-23T13:13:09.085Z,30.1
2018-04-23T13:13:59.171Z,30.5
2018-04-23T13:14:49.504Z,30.3
2018-04-23T13:15:38.739Z,30.4
2018-04-23T13:16:29.647Z,29.9
2018-04-23T13:17:19.780Z,30.1
2018-04-23T13:18:09.524Z,29.1
2018-04-23T13:18:59.847Z,28.7
2018-04-23T13:19:49.623Z,28.8
2018-04-23T13:20:39.964Z,28.6
2018-04-23T13:21:30.087Z,28.9
2018-04-23T13:22:19.830Z,28.8
2018-04-23T13:23:10.152Z,28.7
2018-04-23T13:24:00.557Z,28.9
2018-04-23T13:24:50.308Z,28.6
2018-04-23T13:25:40.347Z,29.3
2018-04-23T13:26:30.409Z,29.6
2018-04-23T13:27:19.924Z,29.5
2018-04-23T13:28:10.560Z,29.6
2018-04-23T13:29:00.364Z,30.4
2018-04-23T13:29:50.410Z,30.5
2018-04-23T13:30:40.193Z,30.3
2018-04-23T13:31:30.936Z,29.8
2018-04-23T13:32:20.629Z,29.4
2018-04-23T13:33:10.972Z,28.8
2018-04-23T13:34:01.030Z,28.9
2018-04-23T13:34:50.552Z,29.1
2018-04-23T13:35:41.151Z,29.8
2018-04-23T13:36:31.212Z,30.6
2018-04-23T13:37:21.302Z,31
2018-04-23T13:38:11.065Z,31
2018-04-23T13:39:01.412Z,30.6
2018-04-23T13:39:51.485Z,30.6
2018-04-23T13:40:41.557Z,30.2
2018-04-23T13:41:31.349Z,30.4
2018-04-23T13:42:21.135Z,30.6
2018-04-23T13:43:11.760Z,30.7
2018-04-23T13:44:01.538Z,30.3
2018-04-23T13:44:51.587Z,30.2
2018-04-23T13:45:41.695Z,30.5
2018-04-23T13:46:31.453Z,30.2
2018-04-23T13:47:22.090Z,30.5
2018-04-23T13:48:11.893Z,30.3
2018-04-23T13:49:02.210Z,30.1
2018-04-23T13:49:52.309Z,30.5
2018-04-23T13:50:42.332Z,30.6
2018-04-23T13:51:32.389Z,30.9
2018-04-23T13:52:22.187Z,31
2018-04-23T13:53:12.524Z,30.9
2018-04-23T13:54:02.042Z,30.2
2018-04-23T13:54:52.389Z,30.1
2018-04-23T13:55:42.719Z,30.1
2018-04-23T13:56:32.799Z,29.8
2018-04-23T13:57:22.842Z,29.7
2018-04-23T13:58:12.941Z,29.4
2018-04-23T13:59:02.983Z,29.9
2018-04-23T13:59:53.044Z,30.7
2018-04-23T14:00:42.557Z,31.1
2018-04-23T14:01:33.358Z,30.9
2018-04-23T14:02:23.250Z,30.6
2018-04-23T14:03:12.841Z,30.7
2018-04-23T14:04:03.397Z,30.4
2018-04-23T14:04:53.440Z,30.5
2018-04-23T14:05:43.519Z,30.3
2018-04-23T14:06:33.294Z,30
2018-04-23T14:07:23.366Z,30.3
2018-04-23T14:08:13.697Z,30.6
2018-04-23T14:09:03.762Z,30.6
2018-04-23T14:09:53.821Z,30.9
2018-04-23T14:10:43.902Z,30.9
2018-04-23T14:11:33.962Z,30.8
2018-04-23T14:12:24.050Z,30.8
2018-04-23T14:13:14.079Z,30.8
2018-04-23T14:14:03.946Z,30.6
2018-04-23T14:14:54.221Z,30
2018-04-23T14:15:44.303Z,29.9
2018-04-23T14:16:34.383Z,30.1
2018-04-23T14:17:24.167Z,30.1
2018-04-23T14:18:14.235Z,30.4
2018-04-23T14:19:04.584Z,30.6
2018-04-23T14:19:54.636Z,30
2018-04-23T14:20:44.441Z,30
2018-04-23T14:21:33.929Z,30.5
2018-04-23T14:22:24.828Z,30.8
2018-04-23T14:23:14.635Z,30.4
2018-04-23T14:24:05.218Z,30.1
2018-04-23T14:24:55.034Z,30.6
2018-04-23T14:25:45.069Z,30.6
2018-04-23T14:26:35.148Z,31.1
2018-04-23T14:27:25.197Z,31.1
2018-04-23T14:28:14.996Z,31.1
2018-04-23T14:29:05.364Z,30.8
2018-04-23T14:29:55.697Z,29.9
2018-04-23T14:30:45.469Z,29.8
2018-04-23T14:31:35.239Z,29.8
2018-04-23T14:32:25.613Z,29.8
2018-04-23T14:33:15.663Z,29.9
2018-04-23T14:34:05.738Z,29.8
2018-04-23T14:34:55.567Z,30
2018-04-23T14:35:45.587Z,30.2
2018-04-23T14:36:35.397Z,30.1
2018-04-23T14:37:26.007Z,29.9
2018-04-23T14:38:15.514Z,29.3
2018-04-23T14:39:06.149Z,28.9
2018-04-23T14:39:55.722Z,28.9
2018-04-23T14:40:45.988Z,29.4
2018-04-23T14:41:36.336Z,29.8
2018-04-23T14:42:26.397Z,29.5
2018-04-23T14:43:16.503Z,29.7
2018-04-23T14:44:06.063Z,29.9
2018-04-23T14:44:56.045Z,29.2
2018-04-23T21:02:40.776Z,14.6
2018-04-23T21:03:30.843Z,14.6
2018-04-23T21:04:21.156Z,14.5
2018-04-23T21:05:11.288Z,14.5
2018-04-23T21:06:01.022Z,14.6
2018-04-23T21:06:51.416Z,14.6
2018-04-23T21:07:41.446Z,14.6
2018-04-23T21:08:31.486Z,14.6
2018-04-23T21:09:21.565Z,14.6
2018-04-23T21:10:11.624Z,14.6
2018-04-23T21:11:01.394Z,14.6
2018-04-23T21:11:51.736Z,14.6
2018-04-23T21:12:41.571Z,14.5
2018-04-23T21:13:31.338Z,14.6
2018-04-23T21:14:21.957Z,14.6
2018-04-23T21:15:11.742Z,14.5
2018-04-23T21:16:02.137Z,14.5
2018-04-23T21:16:52.156Z,14.5
2018-04-23T21:17:42.192Z,14.6
2018-04-23T21:18:31.877Z,14.6
2018-04-23T21:19:21.794Z,14.5
2018-04-23T21:20:12.439Z,14.5
2018-04-23T21:21:02.198Z,14.4
2018-04-23T21:21:51.687Z,14.5
2018-04-23T21:22:41.925Z,14.5
2018-04-23T21:23:31.814Z,14.4
2018-04-23T21:24:22.699Z,14.4
2018-04-23T21:25:12.231Z,14.3
2018-04-23T21:26:03.185Z,14.3
2018-04-23T21:26:52.904Z,14.3
2018-04-23T21:27:42.727Z,14.3
2018-04-23T21:28:32.458Z,14.2
2018-04-23T21:29:21.970Z,14.2
2018-04-23T21:30:12.900Z,14.1
2018-04-23T21:31:02.958Z,14.1
2018-04-23T21:31:53.279Z,14
2018-04-23T21:32:43.082Z,13.9
2018-04-23T21:33:33.452Z,13.9
2018-04-23T21:34:23.481Z,13.8
2018-04-23T21:35:13.275Z,13.8
2018-04-23T21:36:03.608Z,13.8
2018-04-23T21:36:53.694Z,13.8
2018-04-23T21:37:43.833Z,13.8
2018-04-23T21:38:33.519Z,13.7
2018-04-23T21:39:23.579Z,13.7
2018-04-23T21:40:13.918Z,13.8
2018-04-23T21:41:03.745Z,13.8
2018-04-23T21:41:54.043Z,13.8
2018-04-23T21:42:43.841Z,13.6
2018-04-23T21:43:34.447Z,13.6
2018-04-23T21:44:24.236Z,13.6
2018-04-23T21:45:14.315Z,13.6
2018-04-23T21:46:04.390Z,13.5
2018-04-23T21:46:54.425Z,13.4
2018-04-23T21:47:44.489Z,13.4
2018-04-23T21:48:34.573Z,13.4
2018-04-23T21:49:24.620Z,13.4
2018-04-23T21:50:14.707Z,13.4
2018-04-23T21:51:04.752Z,13.4
2018-04-23T21:51:54.531Z,13.3
2018-04-23T21:52:44.893Z,13.3
2018-04-23T21:53:34.665Z,13.3
2018-04-23T21:54:24.737Z,13.4
2018-04-23T21:55:14.786Z,13.4
2018-04-23T21:56:04.580Z,13.4
2018-04-23T21:56:54.920Z,13.4
2018-04-23T21:57:44.743Z,13.4
2018-04-23T21:58:35.317Z,13.6
2018-04-23T21:59:25.441Z,13.6
2018-04-23T22:00:15.167Z,13.6
2018-04-23T22:01:05.264Z,13.6
2018-04-23T22:01:55.738Z,13.6
2018-04-23T22:02:45.854Z,13.4
2018-04-23T22:03:35.438Z,13.4
2018-04-23T22:04:25.240Z,13.5
2018-04-23T22:05:16.174Z,13.4
2018-04-23T22:06:05.643Z,13.5
2018-04-23T22:06:55.705Z,13.4
2018-04-23T22:07:46.081Z,13.4
2018-04-23T22:08:35.827Z,13.4
2018-04-23T22:09:25.725Z,13.4
2018-04-23T22:10:16.223Z,13.4
2018-04-23T22:11:05.737Z,13.4
2018-04-23T22:11:56.373Z,13.4
2018-04-23T22:12:46.144Z,13.4
2018-04-23T22:13:36.481Z,13.3
2018-04-23T22:14:26.571Z,13.3
2018-04-23T22:15:16.609Z,13.3
2018-04-23T22:16:06.124Z,13.3
2018-04-23T22:16:56.723Z,13.3
2018-04-23T22:17:46.532Z,13.2
2018-04-23T22:18:36.907Z,13.3
2018-04-23T22:19:26.664Z,13.1
2018-04-23T22:20:16.989Z,13.1
2018-04-23T22:21:07.074Z,13.2
2018-04-23T22:21:57.113Z,13.2
2018-04-23T22:22:47.167Z,13.2
2018-04-23T22:23:36.693Z,13.2
2018-04-23T22:24:27.060Z,13.1
2018-04-23T22:25:17.402Z,13.3
2018-04-23T22:26:07.212Z,13.3
2018-04-23T22:26:57.494Z,13.2
2018-04-23T22:27:47.591Z,13.1
2018-04-23T22:28:37.669Z,13.1
2018-04-23T22:29:27.694Z,13.1
2018-04-23T22:30:17.772Z,12.9
2018-04-23T22:31:07.579Z,12.9
2018-04-23T22:31:57.496Z,12.9
2018-04-23T22:32:47.991Z,12.9
2018-04-23T22:33:37.745Z,12.9
2018-04-23T22:34:28.092Z,12.9
2018-04-23T22:35:18.226Z,12.9
2018-04-23T22:36:08.220Z,12.9
2018-04-23T22:36:57.988Z,12.9
2018-04-23T22:37:48.132Z,12.9
2018-04-23T22:38:38.470Z,12.9
2018-04-23T22:39:28.507Z,12.9
2018-04-23T22:40:18.537Z,12.9
2018-04-23T22:41:08.748Z,12.9
2018-04-23T22:41:58.673Z,12.9
2018-04-23T22:42:48.741Z,12.9
2018-04-23T22:43:38.787Z,12.8
2018-04-23T22:44:28.920Z,12.8
2018-04-23T22:45:18.902Z,12.7
2018-04-23T22:46:09.037Z,12.6
2018-04-23T22:46:59.073Z,12.6
2018-04-23T22:47:49.103Z,12.6
2018-04-23T22:48:38.617Z,12.6
2018-04-23T22:49:29.227Z,12.6
2018-04-23T22:50:19.295Z,12.6
2018-04-23T22:51:08.780Z,12.5
2018-04-23T22:51:59.438Z,12.4
2018-04-23T22:52:49.223Z,12.4
2018-04-23T22:53:39.275Z,12.4
2018-04-23T22:54:29.382Z,12.4
2018-04-23T22:55:19.682Z,12.5
2018-04-23T22:56:08.913Z,12.4
2018-04-23T22:56:59.837Z,12.5
2018-04-23T22:57:49.028Z,12.6
2018-04-23T22:58:39.652Z,12.6
2018-04-23T22:59:29.999Z,12.7
2018-04-23T23:00:20.061Z,12.6
2018-04-23T23:01:10.159Z,12.7
2018-04-23T23:02:00.304Z,12.7
2018-04-23T23:02:49.976Z,12.6
2018-04-23T23:03:40.303Z,12.6
2018-04-23T23:04:30.406Z,12.5
2018-04-23T23:05:20.463Z,12.4
2018-04-23T23:06:10.505Z,12.4
2018-04-23T23:07:00.774Z,12.3
2018-04-23T23:07:50.639Z,12.3
2018-04-23T23:08:40.691Z,12.3
2018-04-23T23:09:30.752Z,12.3
2018-04-23T23:10:20.554Z,12.3
2018-04-23T23:11:10.897Z,12.2
2018-04-23T23:12:00.956Z,12.1
2018-04-23T23:12:50.752Z,12.1
2018-04-23T23:13:41.095Z,12.1
2018-04-23T23:14:31.147Z,12.1
2018-04-23T23:15:21.207Z,12.1
2018-04-23T23:16:11.299Z,12.1
2018-04-23T23:17:01.335Z,12
2018-04-23T23:17:50.910Z,11.9
2018-04-23T23:18:41.498Z,11.9
2018-04-23T23:19:31.537Z,11.9
2018-04-23T23:20:21.604Z,11.8
